createdAt,value
2023-05-08T00:03:09.848Z,100.00
2023-05-08T00:06:37.466Z,100.00
2023-05-08T00:10:05.067Z,100.00
2023-05-08T00:13:32.783Z,100.00
2023-05-08T00:16:21.550Z,100.00
2023-05-08T00:19:49.553Z,100.00
2023-05-08T00:23:17.332Z,100.00
2023-05-08T00:26:45.032Z,100.00
2023-05-08T00:30:13.056Z,100.00
2023-05-08T00:33:40.808Z,100.00
2023-05-08T00:37:08.687Z,100.00
2023-05-08T00:40:36.499Z,100.00
2023-05-08T00:44:04.389Z,100.00
2023-05-08T00:47:32.366Z,100.00
2023-05-08T00:51:00.403Z,100.00
2023-05-08T00:54:28.327Z,100.00
2023-05-08T00:57:37.339Z,100.00
2023-05-08T01:01:05.176Z,100.00
2023-05-08T01:04:32.928Z,100.00
2023-05-08T01:08:00.761Z,100.00
2023-05-08T01:11:08.820Z,100.00
2023-05-08T01:14:36.718Z,100.00
2023-05-08T01:17:26.352Z,100.00
2023-05-08T01:20:54.107Z,100.00
2023-05-08T01:24:21.857Z,100.00
2023-05-08T01:27:49.715Z,100.00
2023-05-08T01:31:17.880Z,100.00
2023-05-08T01:34:45.641Z,100.00
2023-05-08T01:37:44.230Z,100.00
2023-05-08T01:41:12.235Z,100.00
2023-05-08T01:44:40.263Z,100.00
2023-05-08T01:48:08.354Z,100.00
2023-05-08T01:51:36.120Z,100.00
2023-05-08T01:55:04.111Z,100.00
2023-05-08T01:58:31.973Z,100.00
2023-05-08T02:01:59.930Z,100.00
2023-05-08T02:05:08.858Z,100.00
2023-05-08T02:08:36.748Z,100.00
2023-05-08T02:12:04.607Z,100.00
2023-05-08T02:15:32.417Z,100.00
2023-05-08T02:19:00.379Z,100.00
2023-05-08T02:21:48.858Z,100.00
2023-05-08T02:25:16.823Z,100.00
2023-05-08T02:28:44.577Z,100.00
2023-05-08T02:32:12.630Z,100.00
2023-05-08T02:35:40.780Z,100.00
2023-05-08T02:39:08.640Z,100.00
2023-05-08T02:41:57.301Z,100.00
2023-05-08T02:45:25.039Z,100.00
2023-05-08T02:48:52.832Z,100.00
2023-05-08T02:52:20.809Z,100.00
2023-05-08T02:55:48.522Z,100.00
2023-05-08T02:58:42.353Z,100.00
2023-05-08T03:02:10.508Z,100.00
2023-05-08T03:05:21.942Z,100.00
2023-05-08T03:08:49.888Z,100.00
2023-05-08T03:11:34.840Z,100.00
2023-05-08T03:14:26.060Z,100.00
2023-05-08T03:17:12.883Z,100.00
2023-05-08T03:20:40.828Z,100.00
2023-05-08T03:24:08.447Z,100.00
2023-05-08T03:27:36.434Z,100.00
2023-05-08T03:31:04.326Z,100.00
2023-05-08T03:34:13.604Z,100.00
2023-05-08T03:37:41.494Z,100.00
2023-05-08T03:41:09.157Z,100.00
2023-05-08T03:44:24.700Z,100.00
2023-05-08T03:47:52.534Z,100.00
2023-05-08T03:51:08.895Z,100.00
2023-05-08T03:54:36.836Z,100.00
2023-05-08T03:57:45.616Z,100.00
2023-05-08T04:01:09.865Z,100.00
2023-05-08T04:04:37.531Z,100.00
2023-05-08T04:07:27.382Z,100.00
2023-05-08T04:10:20.143Z,100.00
2023-05-08T04:13:47.877Z,100.00
2023-05-08T04:17:15.679Z,100.00
2023-05-08T04:20:16.053Z,100.00
2023-05-08T04:23:05.823Z,100.00
2023-05-08T04:26:34.060Z,100.00
2023-05-08T04:30:01.784Z,100.00
2023-05-08T04:33:29.830Z,100.00
2023-05-08T04:36:45.530Z,100.00
2023-05-08T04:39:54.522Z,100.00
2023-05-08T04:43:03.310Z,100.00
2023-05-08T04:45:59.897Z,100.00
2023-05-08T04:49:23.391Z,100.00
2023-05-08T04:52:33.451Z,100.00
2023-05-08T04:55:03.153Z,100.00
2023-05-08T04:58:31.091Z,100.00
2023-05-08T05:01:58.928Z,100.00
2023-05-08T05:05:26.895Z,100.00
2023-05-08T05:08:54.760Z,100.00
2023-05-08T05:11:48.235Z,100.00
2023-05-08T05:15:16.152Z,100.00
2023-05-08T05:18:43.822Z,100.00
2023-05-08T05:22:11.756Z,100.00
2023-05-08T05:25:39.814Z,100.00
2023-05-08T05:28:48.398Z,100.00
2023-05-08T05:31:37.347Z,100.00
2023-05-08T05:35:09.477Z,100.00
2023-05-08T05:38:37.487Z,100.00
2023-05-08T05:42:05.809Z,100.00
2023-05-08T05:45:33.933Z,100.00
2023-05-08T05:49:01.836Z,100.00
2023-05-08T05:52:29.621Z,100.00
2023-05-08T05:55:39.545Z,100.00
2023-05-08T05:58:47.498Z,100.00
2023-05-08T06:02:16.155Z,100.00
2023-05-08T06:05:25.235Z,100.00
2023-05-08T06:08:15.691Z,100.00
2023-05-08T06:11:07.938Z,100.00
2023-05-08T06:14:16.551Z,100.00
2023-05-08T06:17:28.621Z,100.00
2023-05-08T06:20:32.505Z,100.00
2023-05-08T06:24:00.451Z,100.00
2023-05-08T06:27:28.258Z,100.00
2023-05-08T06:30:56.706Z,100.00
2023-05-08T06:33:46.244Z,100.00
2023-05-08T06:37:14.593Z,100.00
2023-05-08T06:40:42.470Z,100.00
2023-05-08T06:43:31.264Z,100.00
2023-05-08T06:46:59.220Z,100.00
2023-05-08T06:50:26.926Z,100.00
2023-05-08T06:53:54.691Z,100.00
2023-05-08T06:57:22.907Z,100.00
2023-05-08T07:00:50.593Z,100.00
2023-05-08T07:04:13.459Z,100.00
2023-05-08T07:07:41.477Z,100.00
2023-05-08T07:11:09.316Z,100.00
2023-05-08T07:14:36.914Z,100.00
2023-05-08T07:18:05.337Z,100.00
2023-05-08T07:21:32.674Z,100.00
2023-05-08T07:25:00.349Z,100.00
2023-05-08T07:28:28.009Z,100.00
2023-05-08T07:31:55.799Z,100.00
2023-05-08T07:35:08.979Z,100.00
2023-05-08T07:38:14.149Z,100.00
2023-05-08T07:48:19.120Z,100.00
2023-05-08T07:51:47.317Z,100.00
2023-05-08T07:55:03.674Z,100.00
2023-05-08T07:58:31.537Z,100.00
2023-05-08T08:01:47.619Z,100.00
2023-05-08T08:04:56.463Z,100.00
2023-05-08T08:08:24.266Z,100.00
2023-05-08T08:11:32.468Z,100.00
2023-05-08T08:15:00.317Z,100.00
2023-05-08T08:18:08.996Z,100.00
2023-05-08T08:21:36.369Z,100.00
2023-05-08T08:25:03.823Z,100.00
2023-05-08T08:28:12.482Z,100.00
2023-05-08T08:31:40.265Z,100.00
2023-05-08T08:35:07.720Z,100.00
2023-05-08T08:38:19.346Z,100.00
2023-05-08T08:41:08.928Z,100.00
2023-05-08T08:44:37.664Z,100.00
2023-05-08T08:48:04.332Z,100.00
2023-05-08T08:51:32.041Z,100.00
2023-05-08T08:54:59.556Z,100.00
2023-05-08T08:58:27.263Z,98.76
2023-05-08T09:01:54.854Z,98.10
2023-05-08T09:05:22.520Z,99.12
2023-05-08T09:08:50.174Z,97.85
2023-05-08T09:12:18.066Z,93.44
2023-05-08T09:19:05.008Z,92.23
2023-05-08T09:22:32.910Z,88.37
2023-05-08T09:25:57.904Z,89.82
2023-05-08T09:29:22.384Z,88.47
2023-05-08T09:32:50.231Z,85.35
2023-05-08T09:35:57.753Z,83.23
2023-05-08T09:39:20.810Z,83.37
2023-05-08T09:42:25.784Z,81.47
2023-05-08T09:45:53.528Z,78.84
2023-05-08T09:49:21.980Z,78.00
2023-05-08T09:52:30.851Z,74.83
2023-05-08T09:55:58.456Z,73.03
2023-05-08T09:59:07.126Z,72.63
2023-05-08T10:01:57.374Z,72.84
2023-05-08T10:05:20.060Z,71.76
2023-05-08T10:08:47.595Z,69.97
2023-05-08T10:12:16.226Z,69.35
2023-05-08T10:15:43.910Z,70.54
2023-05-08T10:19:11.300Z,70.89
2023-05-08T10:22:39.136Z,71.26
2023-05-08T10:26:06.909Z,70.61
2023-05-08T10:29:30.817Z,69.63
2023-05-08T10:32:39.765Z,69.22
2023-05-08T10:35:49.962Z,67.70
2023-05-08T10:39:18.524Z,65.34
2023-05-08T10:42:26.932Z,64.97
2023-05-08T10:45:39.086Z,64.78
2023-05-08T10:48:48.683Z,65.25
2023-05-08T10:52:14.839Z,65.02
2023-05-08T10:55:24.558Z,62.95
2023-05-08T10:58:28.581Z,61.06
2023-05-08T11:01:56.179Z,60.92
2023-05-08T11:05:23.630Z,60.66
2023-05-08T11:08:35.135Z,60.65
2023-05-08T11:11:44.795Z,59.39
2023-05-08T11:15:00.293Z,57.92
2023-05-08T11:18:08.481Z,56.97
2023-05-08T11:21:17.032Z,56.81
2023-05-08T11:24:44.730Z,56.56
2023-05-08T11:28:13.566Z,56.53
2023-05-08T11:31:30.856Z,55.51
2023-05-08T11:34:19.085Z,55.03
2023-05-08T11:37:46.514Z,55.03
2023-05-08T11:41:14.268Z,54.95
2023-05-08T11:44:22.416Z,53.41
2023-05-08T11:47:30.770Z,54.38
2023-05-08T11:50:42.395Z,52.38
2023-05-08T11:53:58.488Z,53.07
2023-05-08T11:57:27.196Z,53.18
2023-05-08T12:00:37.076Z,52.49
2023-05-08T12:04:04.858Z,53.28
2023-05-08T12:07:32.201Z,51.37
2023-05-08T12:10:40.588Z,50.74
2023-05-08T12:14:11.036Z,48.38
2023-05-08T12:17:38.648Z,47.21
2023-05-08T12:21:06.403Z,47.01
2023-05-08T12:24:34.283Z,46.58
2023-05-08T12:28:02.196Z,45.07
2023-05-08T12:31:18.811Z,44.74
2023-05-08T12:34:15.115Z,45.85
2023-05-08T12:37:42.718Z,43.44
2023-05-08T12:41:10.472Z,42.91
2023-05-08T12:44:01.575Z,42.63
2023-05-08T12:46:51.548Z,41.54
2023-05-08T12:50:18.887Z,39.87
2023-05-08T12:53:28.393Z,40.08
2023-05-08T12:56:16.598Z,39.41
2023-05-08T12:59:25.319Z,38.61
2023-05-08T13:02:53.175Z,38.66
2023-05-08T13:06:04.418Z,38.74
2023-05-08T13:09:13.299Z,38.87
2023-05-08T13:12:04.142Z,38.14
2023-05-08T13:15:31.676Z,37.28
2023-05-08T13:18:43.550Z,37.00
2023-05-08T13:21:34.063Z,36.20
2023-05-08T13:24:42.879Z,36.23
2023-05-08T13:27:52.048Z,36.73
2023-05-08T13:30:40.695Z,36.19
2023-05-08T13:33:52.788Z,35.92
2023-05-08T13:37:01.201Z,35.23
2023-05-08T13:40:20.594Z,34.06
2023-05-08T13:43:25.667Z,34.72
2023-05-08T13:46:33.396Z,34.59
2023-05-08T13:50:00.777Z,34.26
2023-05-08T13:53:09.598Z,34.50
2023-05-08T13:56:18.078Z,34.56
2023-05-08T13:59:26.582Z,34.93
2023-05-08T14:02:16.414Z,36.57
2023-05-08T14:05:26.091Z,38.49
2023-05-08T14:08:55.446Z,38.62
2023-05-08T14:12:21.830Z,36.63
2023-05-08T14:15:37.966Z,35.25
2023-05-08T14:19:05.384Z,34.66
2023-05-08T14:22:14.361Z,33.85
2023-05-08T14:25:23.489Z,33.75
2023-05-08T14:28:51.232Z,32.51
2023-05-08T14:32:19.345Z,32.31
2023-05-08T14:35:42.910Z,31.32
2023-05-08T14:39:10.596Z,31.57
2023-05-08T14:42:26.406Z,31.02
2023-05-08T14:45:24.112Z,31.39
2023-05-08T14:48:33.822Z,30.13
2023-05-08T14:51:45.542Z,29.19
2023-05-08T14:54:49.315Z,30.83
2023-05-08T14:58:01.551Z,28.75
2023-05-08T15:00:54.726Z,28.82
2023-05-08T15:04:03.879Z,28.62
2023-05-08T15:07:31.796Z,30.15
2023-05-08T15:10:40.064Z,30.68
2023-05-08T15:14:07.781Z,30.74
2023-05-08T15:16:56.597Z,29.83
2023-05-08T15:19:46.419Z,30.09
2023-05-08T15:23:14.306Z,31.71
2023-05-08T15:26:42.115Z,33.58
2023-05-08T15:30:12.971Z,34.23
2023-05-08T15:33:22.417Z,35.90
2023-05-08T15:36:39.511Z,37.58
2023-05-08T15:40:07.380Z,39.14
2023-05-08T15:42:58.243Z,38.89
2023-05-08T15:46:08.169Z,39.26
2023-05-08T15:49:16.129Z,39.28
2023-05-08T15:52:40.301Z,38.83
2023-05-08T15:56:08.248Z,37.14
2023-05-08T15:59:16.105Z,36.36
2023-05-08T16:02:06.096Z,35.08
2023-05-08T16:05:33.824Z,33.53
2023-05-08T16:08:43.728Z,33.38
2023-05-08T16:12:11.650Z,33.27
2023-05-08T16:15:39.552Z,32.25
2023-05-08T16:18:48.475Z,31.73
2023-05-08T16:21:57.324Z,30.97
2023-05-08T16:25:25.381Z,30.53
2023-05-08T16:28:16.113Z,30.36
2023-05-08T16:31:43.847Z,30.17
2023-05-08T16:35:11.913Z,31.66
2023-05-08T16:38:20.676Z,33.81
2023-05-08T16:41:48.606Z,34.04
2023-05-08T16:45:16.432Z,33.56
2023-05-08T16:48:44.518Z,34.17
2023-05-08T16:51:52.238Z,34.32
2023-05-08T16:55:01.415Z,33.93
2023-05-08T16:58:29.171Z,33.80
2023-05-08T17:01:41.000Z,34.10
2023-05-08T17:05:08.805Z,34.41
2023-05-08T17:08:36.532Z,34.70
2023-05-08T17:11:28.844Z,35.76
2023-05-08T17:14:56.782Z,37.86
2023-05-08T17:18:24.478Z,40.85
2023-05-08T17:21:00.145Z,42.80
2023-05-08T17:23:50.054Z,44.52
2023-05-08T17:27:17.786Z,46.27
2023-05-08T17:30:10.161Z,48.23
2023-05-08T17:33:17.214Z,50.66
2023-05-08T17:36:45.227Z,52.66
2023-05-08T17:40:13.283Z,54.64
2023-05-08T17:43:20.516Z,56.38
2023-05-08T17:46:46.474Z,57.21
2023-05-08T17:50:14.337Z,58.70
2023-05-08T17:53:39.673Z,60.19
2023-05-08T17:56:47.859Z,60.64
2023-05-08T18:00:15.847Z,62.09
2023-05-08T18:03:07.933Z,62.30
2023-05-08T18:06:35.449Z,63.04
2023-05-08T18:09:10.991Z,63.83
2023-05-08T18:12:38.943Z,63.86
2023-05-08T18:15:47.628Z,64.27
2023-05-08T18:19:15.393Z,65.16
2023-05-08T18:22:24.154Z,64.99
2023-05-08T18:25:52.268Z,65.54
2023-05-08T18:29:20.051Z,66.08
2023-05-08T18:32:48.042Z,66.96
2023-05-08T18:35:36.653Z,67.28
2023-05-08T18:39:04.409Z,67.24
2023-05-08T18:42:32.197Z,67.55
2023-05-08T18:46:00.178Z,67.78
2023-05-08T18:48:49.436Z,68.71
2023-05-08T18:52:17.431Z,69.34
2023-05-08T18:55:25.335Z,69.76
2023-05-08T18:58:15.161Z,70.55
2023-05-08T19:01:04.111Z,71.16
2023-05-08T19:04:31.972Z,70.93
2023-05-08T19:07:59.703Z,70.94
2023-05-08T19:11:27.545Z,71.16
2023-05-08T19:14:37.266Z,71.40
2023-05-08T19:18:04.969Z,71.34
2023-05-08T19:21:28.468Z,71.52
2023-05-08T19:24:18.206Z,71.98
2023-05-08T19:27:46.123Z,72.75
2023-05-08T19:31:14.130Z,73.41
2023-05-08T19:34:41.911Z,74.26
2023-05-08T19:38:09.873Z,75.03
2023-05-08T19:41:22.437Z,75.23
2023-05-08T19:44:34.799Z,75.71
2023-05-08T19:47:43.424Z,75.72
2023-05-08T19:50:16.897Z,76.37
2023-05-08T19:53:25.761Z,76.90
2023-05-08T19:56:53.549Z,76.56
2023-05-08T20:00:20.220Z,76.55
2023-05-08T20:03:30.212Z,76.49
2023-05-08T20:06:45.953Z,75.80
2023-05-08T20:09:55.680Z,75.80
2023-05-08T20:13:11.649Z,75.31
2023-05-08T20:15:56.510Z,75.42
2023-05-08T20:18:50.294Z,75.44
2023-05-08T20:22:18.110Z,75.59
2023-05-08T20:25:25.162Z,75.71
2023-05-08T20:27:56.748Z,75.87
2023-05-08T20:31:24.550Z,75.97
2023-05-08T20:34:33.210Z,76.12
2023-05-08T20:38:01.226Z,76.32
2023-05-08T20:41:09.835Z,76.69
2023-05-08T20:43:47.959Z,76.46
2023-05-08T20:47:15.727Z,76.93
2023-05-08T20:50:24.131Z,76.74
2023-05-08T20:53:34.738Z,76.59
2023-05-08T20:56:58.237Z,76.85
2023-05-08T21:00:07.155Z,77.62
2023-05-08T21:03:15.917Z,77.47
2023-05-08T21:06:04.767Z,77.72
2023-05-08T21:09:27.928Z,78.75
2023-05-08T21:12:18.946Z,78.81
2023-05-08T21:15:27.805Z,78.63
2023-05-08T21:18:58.222Z,79.47
2023-05-08T21:22:23.558Z,80.02
2023-05-08T21:25:38.329Z,80.54
2023-05-08T21:29:13.683Z,81.56
2023-05-08T21:32:42.232Z,81.89
2023-05-08T21:35:52.160Z,82.14
2023-05-08T21:39:19.917Z,82.83
2023-05-08T21:42:28.170Z,83.51
2023-05-08T21:45:36.892Z,83.75
2023-05-08T21:48:52.867Z,84.07
2023-05-08T21:52:20.572Z,84.35
2023-05-08T21:55:11.591Z,84.69
2023-05-08T21:58:19.641Z,85.32
2023-05-08T22:01:47.587Z,85.83
2023-05-08T22:05:15.703Z,85.36
2023-05-08T22:08:27.959Z,86.42
2023-05-08T22:11:55.676Z,87.07
2023-05-08T22:15:29.675Z,87.94
2023-05-08T22:18:51.794Z,88.75
2023-05-08T22:22:07.358Z,88.86
2023-05-08T22:25:35.087Z,88.83
2023-05-08T22:29:02.842Z,89.20
2023-05-08T22:32:30.672Z,89.51
2023-05-08T22:35:58.450Z,89.77
2023-05-08T22:38:47.396Z,89.74
2023-05-08T22:41:56.048Z,89.69
2023-05-08T22:45:24.006Z,90.08
2023-05-08T22:48:51.951Z,90.21
2023-05-08T22:51:42.857Z,90.14
2023-05-08T22:55:10.573Z,90.71
2023-05-08T22:58:38.352Z,90.65
2023-05-08T23:01:50.042Z,90.90
2023-05-08T23:04:58.790Z,90.81
2023-05-08T23:08:26.616Z,91.48
2023-05-08T23:11:42.507Z,92.23
2023-05-08T23:14:54.640Z,92.18
2023-05-08T23:18:22.614Z,93.14
2023-05-08T23:21:30.354Z,93.82
2023-05-08T23:24:32.860Z,94.51
2023-05-08T23:27:56.828Z,95.91
2023-05-08T23:31:24.766Z,95.32
2023-05-08T23:34:52.407Z,96.49
2023-05-08T23:38:00.571Z,97.65
2023-05-08T23:41:23.954Z,97.52
2023-05-08T23:44:48.213Z,98.55
2023-05-08T23:48:15.995Z,98.71
2023-05-08T23:51:08.342Z,99.24
2023-05-08T23:54:31.279Z,99.53
2023-05-08T23:57:57.162Z,99.32
